Weather at Hemet Ryan Airport

Public forecast

Using degrees Fahrenheit for public forecast. Weather courtesy of forecast.io.

Closest aviation weather report (METAR) to Hemet Ryan Airport

Closest report is French Valley Airport, 10.9 nm (20.3 km) SSW. Retrieved UTC (0 seconds ago):

Closest aviation forecast (TAF) to Hemet Ryan Airport

Closest forecast is March Air Reserve Base, 14.7 nm (27.2 km) NW. Retrieved 2021-10-21 04:15 UTC (1 hour ago):

TAF KRIV 210408Z 2104/2210 VRB04KT 9999 BKN250 QNH3011INS BECMG 2115/2116 15006KT 9999 BKN250 QNH3012INS BECMG 2119/2120 31009KT 9999 BKN250 QNH3004INS TEMPO 2121/2201 31012G18KT BECMG 2201/2202 30006KT 9999 BKN250 QNH3007INS BECMG 2204/2205 VRB04KT 9999 BKN250 QNH3009INS TX28/2121Z TN09/2113Z